createdAt,value
2022-09-28T00:00:18.292Z,13.30
2022-09-28T00:01:20.767Z,13.50
2022-09-28T00:02:17.812Z,13.16
2022-09-28T00:03:14.613Z,13.44
2022-09-28T00:04:12.200Z,13.14
2022-09-28T00:05:09.056Z,13.15
2022-09-28T00:06:08.686Z,13.45
2022-09-28T00:07:05.381Z,13.46
2022-09-28T00:08:02.121Z,13.41
2022-09-28T00:08:58.918Z,13.55
2022-09-28T00:09:55.623Z,13.56
2022-09-28T00:10:56.228Z,13.75
2022-09-28T00:11:57.477Z,13.46
2022-09-28T00:12:57.286Z,13.47
2022-09-28T00:13:57.804Z,13.39
2022-09-28T00:14:54.726Z,13.18
2022-09-28T00:16:05.150Z,13.38
2022-09-28T00:17:01.920Z,13.30
2022-09-28T00:17:58.618Z,13.11
2022-09-28T00:18:55.989Z,12.54
2022-09-28T00:19:53.011Z,13.15
2022-09-28T00:21:04.356Z,13.43
2022-09-28T00:22:01.061Z,13.62
2022-09-28T00:22:57.865Z,13.46
2022-09-28T00:24:20.533Z,12.63
2022-09-28T00:25:21.968Z,13.58
2022-09-28T00:26:18.686Z,13.37
2022-09-28T00:27:15.392Z,13.53
2022-09-28T00:28:12.083Z,13.46
2022-09-28T00:29:17.714Z,13.34
2022-09-28T00:30:16.405Z,13.09
2022-09-28T00:31:13.408Z,13.58
2022-09-28T00:32:12.181Z,13.31
2022-09-28T00:33:08.861Z,13.54
2022-09-28T00:34:05.933Z,13.32
2022-09-28T00:35:02.709Z,13.24
2022-09-28T00:35:59.639Z,13.13
2022-09-28T00:36:56.341Z,13.22
2022-09-28T00:37:53.061Z,12.12
2022-09-28T00:38:52.286Z,13.18
2022-09-28T00:39:49.169Z,13.26
2022-09-28T00:40:45.989Z,13.07
2022-09-28T00:41:43.773Z,13.06
2022-09-28T00:42:42.894Z,13.03
2022-09-28T00:43:39.757Z,13.14
2022-09-28T00:44:41.170Z,13.30
2022-09-28T00:45:38.059Z,12.94
2022-09-28T00:46:36.609Z,13.12
2022-09-28T00:47:53.380Z,12.14
2022-09-28T00:48:58.531Z,12.96
2022-09-28T00:50:00.566Z,13.17
2022-09-28T00:51:02.009Z,13.23
2022-09-28T00:52:01.661Z,12.28
2022-09-28T00:53:34.896Z,12.47
2022-09-28T00:54:32.336Z,12.81
2022-09-28T00:55:51.153Z,13.00
2022-09-28T00:56:49.296Z,13.06
2022-09-28T00:57:52.267Z,13.20
2022-09-28T00:58:53.440Z,13.10
2022-09-28T00:59:52.210Z,13.09
2022-09-28T01:00:49.674Z,12.68
2022-09-28T01:01:46.786Z,13.36
2022-09-28T01:02:46.451Z,13.22
2022-09-28T01:03:45.600Z,13.00
2022-09-28T01:04:42.671Z,13.21
2022-09-28T01:05:40.565Z,13.12
2022-09-28T01:06:39.338Z,13.04
2022-09-28T01:07:37.470Z,13.01
2022-09-28T01:08:36.202Z,13.23
2022-09-28T01:09:33.163Z,13.13
2022-09-28T01:10:31.488Z,13.24
2022-09-28T01:11:29.875Z,13.12
2022-09-28T01:12:26.574Z,12.92
2022-09-28T01:13:25.063Z,12.75
2022-09-28T01:14:25.748Z,13.20
2022-09-28T01:15:26.953Z,13.13
2022-09-28T01:16:49.417Z,12.96
2022-09-28T01:18:07.773Z,13.28
2022-09-28T01:19:55.375Z,12.86
2022-09-28T01:21:01.123Z,12.67
2022-09-28T01:22:34.500Z,12.61
2022-09-28T01:23:49.719Z,12.70
2022-09-28T01:24:49.210Z,11.83
2022-09-28T01:25:55.374Z,12.06
2022-09-28T01:27:06.458Z,12.25
2022-09-28T01:28:15.144Z,11.32
2022-09-28T01:29:17.571Z,12.16
2022-09-28T01:30:21.158Z,11.94
2022-09-28T01:31:22.904Z,12.29
2022-09-28T01:32:31.607Z,12.55
2022-09-28T01:33:36.458Z,12.66
2022-09-28T01:35:02.780Z,12.52
2022-09-28T01:35:59.413Z,12.45
2022-09-28T01:37:01.634Z,12.39
2022-09-28T01:38:17.258Z,12.50
2022-09-28T01:39:40.093Z,12.71
2022-09-28T01:40:37.817Z,12.44
2022-09-28T01:41:40.247Z,12.28
2022-09-28T01:42:42.118Z,12.47
2022-09-28T01:43:46.016Z,12.42
2022-09-28T01:44:48.374Z,11.88
2022-09-28T01:45:51.245Z,12.57
2022-09-28T01:46:50.637Z,12.43
2022-09-28T01:47:51.324Z,12.32
2022-09-28T01:48:57.240Z,12.14
2022-09-28T01:50:07.201Z,12.25
2022-09-28T01:51:11.121Z,12.53
2022-09-28T01:52:44.839Z,12.66
2022-09-28T01:53:47.472Z,12.77
2022-09-28T01:54:53.310Z,12.80
2022-09-28T01:55:59.286Z,12.60
2022-09-28T01:57:17.571Z,12.41
2022-09-28T01:58:45.325Z,12.56
2022-09-28T01:59:56.100Z,12.72
2022-09-28T02:01:01.636Z,12.02
2022-09-28T02:02:15.725Z,12.61
2022-09-28T02:03:25.023Z,12.27
2022-09-28T02:04:32.592Z,12.26
2022-09-28T02:05:35.399Z,12.24
2022-09-28T02:06:38.885Z,12.27
2022-09-28T02:07:57.423Z,12.38
2022-09-28T02:09:02.902Z,12.55
2022-09-28T02:10:09.649Z,12.67
2022-09-28T02:11:16.372Z,12.86
2022-09-28T02:12:23.373Z,12.85
2022-09-28T02:13:35.481Z,12.80
2022-09-28T02:14:37.986Z,12.46
2022-09-28T02:15:56.591Z,12.63
2022-09-28T02:16:55.491Z,12.63
2022-09-28T02:17:52.529Z,12.46
2022-09-28T02:18:51.462Z,11.86
2022-09-28T02:19:48.807Z,11.84
2022-09-28T02:20:57.548Z,11.75
2022-09-28T02:22:16.032Z,12.54
2022-09-28T02:23:15.314Z,12.11
2022-09-28T02:24:21.535Z,11.49
2022-09-28T02:25:26.636Z,12.47
2022-09-28T02:26:31.221Z,12.48
2022-09-28T02:27:42.986Z,12.73
2022-09-28T02:28:39.706Z,12.80
2022-09-28T02:29:36.419Z,12.57
2022-09-28T02:30:36.991Z,12.86
2022-09-28T02:31:34.928Z,12.54
2022-09-28T02:32:35.674Z,12.37
2022-09-28T02:33:41.226Z,12.34
2022-09-28T02:34:38.018Z,12.41
2022-09-28T02:35:35.486Z,12.55
2022-09-28T02:36:34.045Z,12.54
2022-09-28T02:37:31.387Z,12.76
2022-09-28T02:38:28.068Z,12.48
2022-09-28T02:39:25.054Z,12.25
2022-09-28T02:40:28.928Z,12.69
2022-09-28T02:42:06.729Z,12.49
2022-09-28T02:43:18.338Z,12.48
2022-09-28T02:44:43.557Z,12.46
2022-09-28T02:46:04.704Z,12.39
2022-09-28T02:47:28.771Z,12.64
2022-09-28T02:49:20.778Z,12.85
2022-09-28T02:50:27.653Z,12.61
2022-09-28T02:51:27.326Z,12.58
2022-09-28T02:52:42.487Z,12.50
2022-09-28T02:54:01.148Z,12.22
2022-09-28T02:55:18.008Z,12.55
2022-09-28T02:56:30.118Z,12.65
2022-09-28T02:57:29.893Z,12.49
2022-09-28T02:59:21.573Z,12.20
2022-09-28T03:00:23.058Z,12.36
2022-09-28T03:01:27.140Z,12.54
2022-09-28T03:02:31.801Z,12.57
2022-09-28T03:03:55.587Z,12.76
2022-09-28T03:05:19.456Z,12.79
2022-09-28T03:06:29.966Z,12.75
2022-09-28T03:07:36.131Z,12.37
2022-09-28T03:08:43.007Z,12.46
2022-09-28T03:10:22.338Z,12.69
2022-09-28T03:11:47.622Z,12.67
2022-09-28T03:12:49.001Z,12.61
2022-09-28T03:13:46.640Z,12.65
2022-09-28T03:14:43.445Z,12.73
2022-09-28T03:15:45.262Z,12.59
2022-09-28T03:16:46.185Z,12.40
2022-09-28T03:17:42.960Z,12.91
2022-09-28T03:18:39.899Z,13.05
2022-09-28T03:19:37.162Z,12.07
2022-09-28T03:20:34.066Z,12.63
2022-09-28T03:21:30.738Z,12.84
2022-09-28T03:22:27.409Z,12.42
2022-09-28T03:23:25.291Z,12.95
2022-09-28T03:24:22.275Z,12.97
2022-09-28T03:25:19.071Z,13.03
2022-09-28T03:26:16.825Z,12.97
2022-09-28T03:27:13.502Z,12.77
2022-09-28T03:28:10.191Z,12.79
2022-09-28T03:29:07.009Z,12.99
2022-09-28T03:30:04.579Z,13.01
2022-09-28T03:31:01.306Z,13.01
2022-09-28T03:32:16.737Z,12.74
2022-09-28T03:33:13.481Z,12.84
2022-09-28T03:34:10.183Z,12.85
2022-09-28T03:35:09.200Z,12.82
2022-09-28T03:36:06.123Z,13.06
2022-09-28T03:37:02.896Z,12.96
2022-09-28T03:37:59.578Z,13.16
2022-09-28T03:38:56.387Z,13.10
2022-09-28T03:39:53.097Z,12.92
2022-09-28T03:40:56.714Z,12.67
2022-09-28T03:41:53.438Z,12.44
2022-09-28T03:42:50.120Z,12.95
2022-09-28T03:43:46.942Z,12.95
2022-09-28T03:44:43.653Z,12.56
2022-09-28T03:45:40.383Z,12.79
2022-09-28T03:46:37.117Z,12.86
2022-09-28T03:47:33.784Z,12.88
2022-09-28T03:48:33.705Z,12.55
2022-09-28T03:49:30.394Z,12.82
2022-09-28T03:50:27.346Z,12.76
2022-09-28T03:51:24.138Z,12.63
2022-09-28T03:52:20.945Z,12.83
2022-09-28T03:53:17.612Z,12.96
2022-09-28T03:54:14.298Z,12.76
2022-09-28T03:55:11.209Z,13.09
2022-09-28T03:56:12.578Z,12.86
2022-09-28T03:57:09.294Z,12.85
2022-09-28T03:58:05.979Z,12.61
2022-09-28T03:59:03.931Z,12.61
2022-09-28T04:00:00.872Z,12.93
2022-09-28T04:01:05.933Z,12.58
2022-09-28T04:02:03.061Z,12.72
2022-09-28T04:02:59.757Z,12.99
2022-09-28T04:03:56.498Z,11.97
2022-09-28T04:04:53.182Z,13.06
2022-09-28T04:05:51.962Z,13.17
2022-09-28T04:06:48.718Z,13.00
2022-09-28T04:07:45.374Z,12.99
2022-09-28T04:08:43.497Z,12.78
2022-09-28T04:09:40.346Z,12.72
2022-09-28T04:10:37.042Z,12.65
2022-09-28T04:11:42.986Z,12.68
2022-09-28T04:12:50.914Z,12.57
2022-09-28T04:13:50.521Z,13.22
2022-09-28T04:14:47.235Z,13.15
2022-09-28T04:15:52.895Z,13.15
2022-09-28T04:16:52.228Z,13.09
2022-09-28T04:17:49.410Z,12.77
2022-09-28T04:18:47.736Z,13.10
2022-09-28T04:19:44.438Z,12.55
2022-09-28T04:20:43.290Z,13.22
2022-09-28T04:21:40.813Z,13.35
2022-09-28T04:22:37.748Z,13.35
2022-09-28T04:23:36.711Z,13.45
2022-09-28T04:24:33.772Z,13.27
2022-09-28T04:25:30.438Z,13.24
2022-09-28T04:26:28.408Z,12.83
2022-09-28T04:27:48.157Z,13.17
2022-09-28T04:29:06.753Z,12.92
2022-09-28T04:30:03.957Z,12.96
2022-09-28T04:31:01.314Z,12.78
2022-09-28T04:31:59.951Z,12.97
2022-09-28T04:32:56.703Z,12.82
2022-09-28T04:33:53.848Z,13.22
2022-09-28T04:34:51.404Z,13.45
2022-09-28T04:35:48.172Z,13.55
2022-09-28T04:36:45.861Z,13.51
2022-09-28T04:37:42.589Z,13.60
2022-09-28T04:38:56.043Z,13.58
2022-09-28T04:39:52.821Z,13.47
2022-09-28T04:40:49.782Z,12.19
2022-09-28T04:41:49.023Z,13.15
2022-09-28T04:42:53.906Z,13.46
2022-09-28T04:43:50.723Z,13.47
2022-09-28T04:44:47.538Z,13.49
2022-09-28T04:45:44.291Z,13.14
2022-09-28T04:46:41.027Z,13.81
2022-09-28T04:47:37.718Z,14.01
2022-09-28T04:48:34.526Z,14.02
2022-09-28T04:49:31.267Z,13.64
2022-09-28T04:50:27.972Z,13.77
2022-09-28T04:51:24.777Z,13.77
2022-09-28T04:52:21.467Z,13.72
2022-09-28T04:53:18.153Z,13.72
2022-09-28T04:54:14.829Z,13.84
2022-09-28T04:55:14.580Z,13.68
2022-09-28T04:56:13.353Z,14.04
2022-09-28T04:57:10.199Z,14.04
2022-09-28T04:58:06.882Z,13.14
2022-09-28T04:59:03.702Z,14.11
2022-09-28T05:00:00.437Z,13.79
2022-09-28T05:01:00.227Z,13.97
2022-09-28T05:01:57.236Z,14.06
2022-09-28T05:02:54.199Z,14.16
2022-09-28T05:03:51.177Z,13.95
2022-09-28T05:04:47.954Z,14.13
2022-09-28T05:05:45.433Z,14.06
2022-09-28T05:06:42.139Z,13.94
2022-09-28T05:07:39.058Z,14.17
2022-09-28T05:08:36.239Z,14.01
2022-09-28T05:09:36.289Z,13.57
2022-09-28T05:10:35.221Z,13.89
2022-09-28T05:11:31.928Z,14.05
2022-09-28T05:12:28.619Z,14.01
2022-09-28T05:13:25.678Z,13.75
2022-09-28T05:14:22.563Z,13.93
2022-09-28T05:15:19.302Z,13.70
2022-09-28T05:16:17.026Z,13.69
2022-09-28T05:17:13.756Z,13.68
2022-09-28T05:18:10.457Z,13.73
2022-09-28T05:19:07.209Z,13.72
2022-09-28T05:20:04.890Z,13.76
2022-09-28T05:21:01.975Z,12.80
2022-09-28T05:22:00.476Z,13.39
2022-09-28T05:22:57.232Z,13.46
2022-09-28T05:23:56.169Z,13.43
2022-09-28T05:24:54.742Z,13.40
2022-09-28T05:25:51.477Z,13.40
2022-09-28T05:26:48.174Z,13.63
2022-09-28T05:27:44.958Z,13.69
2022-09-28T05:28:41.727Z,13.53
2022-09-28T05:29:38.431Z,13.53
2022-09-28T05:30:36.298Z,13.47
2022-09-28T05:31:33.074Z,13.16
2022-09-28T05:32:29.820Z,13.07
2022-09-28T05:33:27.321Z,13.40
2022-09-28T05:34:23.988Z,13.29
2022-09-28T05:35:20.805Z,13.46
2022-09-28T05:36:17.513Z,12.91
2022-09-28T05:37:14.230Z,13.76
2022-09-28T05:38:10.988Z,13.83
2022-09-28T05:39:07.799Z,13.54
2022-09-28T05:40:05.488Z,13.44
2022-09-28T05:41:06.379Z,13.60
2022-09-28T05:42:03.620Z,13.88
2022-09-28T05:43:04.054Z,13.87
2022-09-28T05:44:01.084Z,11.81
2022-09-28T05:45:00.690Z,14.15
2022-09-28T05:46:00.466Z,13.44
2022-09-28T05:46:57.363Z,14.22
2022-09-28T05:47:54.031Z,14.68
2022-09-28T05:48:52.615Z,14.46
2022-09-28T05:49:49.294Z,14.36
2022-09-28T05:50:51.801Z,13.88
2022-09-28T05:51:48.533Z,14.83
2022-09-28T05:52:45.489Z,14.97
2022-09-28T05:53:42.193Z,14.97
2022-09-28T05:54:38.988Z,14.84
2022-09-28T05:55:36.950Z,14.73
2022-09-28T05:56:33.687Z,15.01
2022-09-28T05:57:30.746Z,15.00
2022-09-28T05:58:28.271Z,15.08
2022-09-28T05:59:25.015Z,15.21
2022-09-28T06:00:21.723Z,14.93
2022-09-28T06:01:18.538Z,14.73
2022-09-28T06:02:15.324Z,14.91
2022-09-28T06:03:14.024Z,14.83
2022-09-28T06:04:10.864Z,14.78
2022-09-28T06:05:07.915Z,15.29
2022-09-28T06:06:05.035Z,15.13
2022-09-28T06:07:01.847Z,15.20
2022-09-28T06:08:00.035Z,14.98
2022-09-28T06:08:56.829Z,14.36
2022-09-28T06:09:53.942Z,15.26
2022-09-28T06:10:50.651Z,15.21
2022-09-28T06:11:48.355Z,14.71
2022-09-28T06:12:47.073Z,15.45
2022-09-28T06:13:43.783Z,14.80
2022-09-28T06:14:40.483Z,15.14
2022-09-28T06:15:37.934Z,14.67
2022-09-28T06:16:35.114Z,15.06
2022-09-28T06:17:31.889Z,15.16
2022-09-28T06:18:28.774Z,14.87
2022-09-28T06:19:25.514Z,14.91
2022-09-28T06:20:22.430Z,15.05
2022-09-28T06:21:19.186Z,15.15
2022-09-28T06:22:15.894Z,15.10
2022-09-28T06:23:13.444Z,15.27
2022-09-28T06:24:10.226Z,15.12
2022-09-28T06:25:07.530Z,14.55
2022-09-28T06:26:04.563Z,14.65
2022-09-28T06:27:01.261Z,13.98
2022-09-28T06:28:03.446Z,14.76
2022-09-28T06:29:03.630Z,14.47
2022-09-28T06:30:02.230Z,14.72
2022-09-28T06:31:01.890Z,14.51
2022-09-28T06:31:58.665Z,14.65
2022-09-28T06:33:01.302Z,14.75
2022-09-28T06:33:59.365Z,14.35
2022-09-28T06:34:56.687Z,14.89
2022-09-28T06:35:53.912Z,14.96
2022-09-28T06:36:50.645Z,14.73
2022-09-28T06:37:47.807Z,15.06
2022-09-28T06:38:45.203Z,14.96
2022-09-28T06:39:41.903Z,14.75
2022-09-28T06:40:38.952Z,14.43
2022-09-28T06:41:35.689Z,14.83
2022-09-28T06:42:32.382Z,14.68
2022-09-28T06:43:34.130Z,14.82
2022-09-28T06:44:32.278Z,14.27
2022-09-28T06:45:30.450Z,14.68
2022-09-28T06:46:27.226Z,14.25
2022-09-28T06:47:23.963Z,14.68
2022-09-28T06:48:20.721Z,14.44
2022-09-28T06:49:19.597Z,14.80
2022-09-28T06:50:16.533Z,15.00
2022-09-28T06:51:13.482Z,14.98
2022-09-28T06:52:11.887Z,14.73
2022-09-28T06:53:13.442Z,15.38
2022-09-28T06:54:10.254Z,15.70
2022-09-28T06:55:07.684Z,15.92
2022-09-28T06:56:04.994Z,15.50
2022-09-28T06:57:02.228Z,15.72
2022-09-28T06:58:07.447Z,15.45
2022-09-28T06:59:04.794Z,15.66
2022-09-28T07:00:01.855Z,15.81
2022-09-28T07:00:59.510Z,16.01
2022-09-28T07:01:56.260Z,15.64
2022-09-28T07:02:52.983Z,16.17
2022-09-28T07:03:53.615Z,15.72
2022-09-28T07:04:52.149Z,15.32
2022-09-28T07:05:53.941Z,15.68
2022-09-28T07:06:50.682Z,15.92
2022-09-28T07:07:47.622Z,15.70
2022-09-28T07:08:47.639Z,15.24
2022-09-28T07:09:55.861Z,15.42
2022-09-28T07:10:56.439Z,15.59
2022-09-28T07:11:53.579Z,15.72
2022-09-28T07:12:51.814Z,15.82
2022-09-28T07:13:51.273Z,16.04
2022-09-28T07:14:50.310Z,15.38
2022-09-28T07:15:47.594Z,16.39
2022-09-28T07:17:08.962Z,16.15
2022-09-28T07:18:04.254Z,15.74
2022-09-28T07:19:01.161Z,15.47
2022-09-28T07:19:59.986Z,15.57
2022-09-28T07:21:04.119Z,15.89
2022-09-28T07:22:05.135Z,15.87
2022-09-28T07:23:17.701Z,16.08
2022-09-28T07:24:16.060Z,16.16
2022-09-28T07:25:14.226Z,15.82
2022-09-28T07:26:10.920Z,16.03
2022-09-28T07:27:07.614Z,16.19
2022-09-28T07:28:05.121Z,16.25
2022-09-28T07:29:01.836Z,16.02
2022-09-28T07:29:58.916Z,15.47
2022-09-28T07:30:57.657Z,16.05
2022-09-28T07:31:54.538Z,15.97
2022-09-28T07:32:51.928Z,16.49
2022-09-28T07:33:51.180Z,16.46
2022-09-28T07:34:48.778Z,15.64
2022-09-28T07:35:55.599Z,16.38
2022-09-28T07:36:58.830Z,16.60
2022-09-28T07:38:01.462Z,16.13
2022-09-28T07:38:58.198Z,16.34
2022-09-28T07:40:13.565Z,16.62
2022-09-28T07:41:14.246Z,16.41
2022-09-28T07:42:10.943Z,16.42
2022-09-28T07:43:07.720Z,16.40
2022-09-28T07:44:07.499Z,16.65
2022-09-28T07:45:04.558Z,16.26
2022-09-28T07:46:01.421Z,16.71
2022-09-28T07:46:58.207Z,16.40
2022-09-28T07:47:58.722Z,16.09
2022-09-28T07:48:55.431Z,16.70
2022-09-28T07:49:58.263Z,16.71
2022-09-28T07:50:57.356Z,16.86
2022-09-28T07:51:54.074Z,16.85
2022-09-28T07:52:50.786Z,17.03
2022-09-28T07:53:48.154Z,16.95
2022-09-28T07:54:44.838Z,17.00
2022-09-28T07:55:41.535Z,17.21
2022-09-28T07:56:38.226Z,17.15
2022-09-28T07:57:35.422Z,17.22
2022-09-28T07:58:35.172Z,17.00
2022-09-28T07:59:32.497Z,16.94
2022-09-28T08:00:34.268Z,16.70
2022-09-28T08:01:31.257Z,16.99
2022-09-28T08:02:28.130Z,16.84
2022-09-28T08:03:24.858Z,16.97
2022-09-28T08:04:21.628Z,16.42
2022-09-28T08:05:18.777Z,16.66
2022-09-28T08:06:17.678Z,16.71
2022-09-28T08:07:23.506Z,16.92
2022-09-28T08:08:20.801Z,17.26
2022-09-28T08:09:17.694Z,17.04
2022-09-28T08:10:14.638Z,17.15
2022-09-28T08:11:16.826Z,17.30
2022-09-28T08:12:14.430Z,16.83
2022-09-28T08:13:11.227Z,17.29
2022-09-28T08:14:07.972Z,14.23
2022-09-28T08:15:06.665Z,16.81
2022-09-28T08:16:04.509Z,16.96
2022-09-28T08:17:02.083Z,17.16
2022-09-28T08:18:02.036Z,17.33
2022-09-28T08:18:59.827Z,17.31
2022-09-28T08:20:14.999Z,17.05
2022-09-28T08:21:30.232Z,17.21
2022-09-28T08:22:27.121Z,17.37
2022-09-28T08:23:23.979Z,17.71
2022-09-28T08:24:23.971Z,17.36
2022-09-28T08:25:21.153Z,17.64
2022-09-28T08:26:17.994Z,16.93
2022-09-28T08:27:16.718Z,17.71
2022-09-28T08:28:13.546Z,17.56
2022-09-28T08:29:10.982Z,17.46
2022-09-28T08:30:08.213Z,17.83
2022-09-28T08:31:07.468Z,17.82
2022-09-28T08:32:08.107Z,17.92
2022-09-28T08:33:05.124Z,17.84
2022-09-28T08:34:02.735Z,17.59
2022-09-28T08:34:59.624Z,17.76
2022-09-28T08:35:58.875Z,17.90
2022-09-28T08:36:59.175Z,17.90
2022-09-28T08:37:55.970Z,18.03
2022-09-28T08:38:52.655Z,18.15
2022-09-28T08:39:49.418Z,17.98
2022-09-28T08:41:23.470Z,18.28
2022-09-28T08:42:41.844Z,18.09
2022-09-28T08:44:08.316Z,18.13
2022-09-28T08:45:22.843Z,18.01
2022-09-28T08:46:27.168Z,18.09
2022-09-28T08:48:10.479Z,18.31
2022-09-28T08:49:25.523Z,17.55
2022-09-28T08:50:29.629Z,18.36
2022-09-28T08:51:38.063Z,18.50
2022-09-28T08:52:40.250Z,18.54
2022-09-28T08:53:50.496Z,18.43
2022-09-28T08:54:58.985Z,18.65
2022-09-28T08:55:56.922Z,18.62
2022-09-28T08:57:07.357Z,18.67
2022-09-28T08:58:03.996Z,18.68
2022-09-28T08:59:05.639Z,18.33
2022-09-28T09:00:09.613Z,18.74
2022-09-28T09:01:16.530Z,18.70
2022-09-28T09:02:33.967Z,18.68
2022-09-28T09:03:35.893Z,18.48
2022-09-28T09:04:34.002Z,18.72
2022-09-28T09:05:44.394Z,18.30
2022-09-28T09:07:03.842Z,18.84
2022-09-28T09:08:18.358Z,18.75
2022-09-28T09:09:46.602Z,18.83
2022-09-28T09:10:48.950Z,18.89
2022-09-28T09:12:00.840Z,17.90
2022-09-28T09:13:35.965Z,18.93
2022-09-28T09:14:47.860Z,18.77
2022-09-28T09:15:48.136Z,19.08
2022-09-28T09:17:01.715Z,18.65
2022-09-28T09:18:20.063Z,19.02
2022-09-28T09:19:27.242Z,19.06
2022-09-28T09:20:59.061Z,19.14
2022-09-28T09:22:01.789Z,19.30
2022-09-28T09:23:00.982Z,19.34
2022-09-28T09:24:26.142Z,19.16
2022-09-28T09:25:41.489Z,19.56
2022-09-28T09:26:40.916Z,19.55
2022-09-28T09:27:46.595Z,19.74
2022-09-28T09:28:58.049Z,19.86
2022-09-28T09:30:17.788Z,19.87
2022-09-28T09:31:19.602Z,19.88
2022-09-28T09:32:27.356Z,19.83
2022-09-28T09:33:52.069Z,19.79
2022-09-28T09:35:18.787Z,19.89
2022-09-28T09:36:41.329Z,19.91
2022-09-28T09:38:13.077Z,19.95
2022-09-28T09:39:12.602Z,19.70
2022-09-28T09:40:14.977Z,19.96
2022-09-28T09:41:52.074Z,19.95
2022-09-28T09:43:19.661Z,20.09
2022-09-28T09:44:33.597Z,20.13
2022-09-28T09:45:45.508Z,20.16
2022-09-28T09:47:08.001Z,19.99
2022-09-28T09:48:10.680Z,19.76
2022-09-28T09:49:23.269Z,20.18
2022-09-28T09:50:47.811Z,20.40
2022-09-28T09:52:08.186Z,20.24
2022-09-28T09:53:10.783Z,20.44
2022-09-28T09:54:20.003Z,20.56
2022-09-28T09:55:30.303Z,20.32
2022-09-28T09:56:50.433Z,20.81
2022-09-28T09:57:57.966Z,20.60
2022-09-28T09:59:02.748Z,20.68
2022-09-28T10:00:02.638Z,21.10
2022-09-28T10:01:11.371Z,20.93
2022-09-28T10:02:30.123Z,21.29
2022-09-28T10:03:35.138Z,21.40
2022-09-28T10:04:44.549Z,21.75
2022-09-28T10:05:47.876Z,21.50
2022-09-28T10:06:45.743Z,21.84
2022-09-28T10:07:57.114Z,21.69
2022-09-28T10:09:10.177Z,22.00
2022-09-28T10:10:21.453Z,22.11
2022-09-28T10:11:21.948Z,22.26
2022-09-28T10:12:24.318Z,21.16
2022-09-28T10:13:21.017Z,22.34
2022-09-28T10:14:24.123Z,21.99
2022-09-28T10:15:26.400Z,22.32
2022-09-28T10:16:24.209Z,22.17
2022-09-28T10:17:26.804Z,22.51
2022-09-28T10:18:23.523Z,22.15
2022-09-28T10:19:28.913Z,22.38
2022-09-28T10:20:27.904Z,22.28
2022-09-28T10:21:25.846Z,22.53
2022-09-28T10:22:26.121Z,22.58
2022-09-28T10:23:28.169Z,22.85
2022-09-28T10:24:40.229Z,22.96
2022-09-28T10:25:38.819Z,23.13
2022-09-28T10:26:41.662Z,23.10
2022-09-28T10:27:46.493Z,23.10
2022-09-28T10:28:52.094Z,23.43
2022-09-28T10:29:48.762Z,23.48
2022-09-28T10:30:45.579Z,23.45
2022-09-28T10:31:48.966Z,23.48
2022-09-28T10:32:49.157Z,23.45
2022-09-28T10:33:45.998Z,23.42
2022-09-28T10:34:44.005Z,23.17
2022-09-28T10:35:43.666Z,23.14
2022-09-28T10:37:06.218Z,22.57
2022-09-28T10:38:19.547Z,22.84
2022-09-28T10:39:28.172Z,23.09
2022-09-28T10:40:31.885Z,23.15
2022-09-28T10:41:28.839Z,22.79
2022-09-28T10:42:34.110Z,23.20
2022-09-28T10:44:06.262Z,23.39
2022-09-28T10:45:19.992Z,22.98
2022-09-28T10:46:24.170Z,23.09
2022-09-28T10:47:24.982Z,23.32
2022-09-28T10:48:23.049Z,22.64
2022-09-28T10:49:23.406Z,22.87
2022-09-28T10:50:27.020Z,23.07
2022-09-28T10:51:54.593Z,23.34
2022-09-28T10:52:51.357Z,23.54
2022-09-28T10:54:02.247Z,23.08
2022-09-28T10:54:59.239Z,23.57
2022-09-28T10:56:03.997Z,23.36
2022-09-28T10:57:00.769Z,23.39
2022-09-28T10:57:57.900Z,23.36
2022-09-28T10:58:54.705Z,22.57
2022-09-28T10:59:51.830Z,23.20
2022-09-28T11:00:50.217Z,23.25
2022-09-28T11:01:47.277Z,23.21
2022-09-28T11:02:44.360Z,22.54
2022-09-28T11:03:58.670Z,23.01
2022-09-28T11:05:01.622Z,22.92
2022-09-28T11:06:01.198Z,23.50
2022-09-28T11:08:07.748Z,23.54
2022-09-28T11:09:25.366Z,23.60
2022-09-28T11:10:29.398Z,23.58
2022-09-28T11:11:27.183Z,23.05
2022-09-28T11:12:33.397Z,23.22
2022-09-28T11:13:30.637Z,23.37
2022-09-28T11:14:41.327Z,23.19
2022-09-28T11:15:44.183Z,22.99
2022-09-28T11:16:40.872Z,23.02
2022-09-28T11:17:44.149Z,22.60
2022-09-28T11:18:40.867Z,23.21
2022-09-28T11:19:38.189Z,23.38
2022-09-28T11:20:35.962Z,22.81
2022-09-28T11:21:42.815Z,23.27
2022-09-28T11:22:41.967Z,23.22
2022-09-28T11:23:38.701Z,23.06
2022-09-28T11:24:35.966Z,23.30
2022-09-28T11:25:34.094Z,23.22
2022-09-28T11:26:46.131Z,23.16
2022-09-28T11:28:04.676Z,23.33
2022-09-28T11:29:01.905Z,23.30
2022-09-28T11:29:59.761Z,23.08
2022-09-28T11:30:57.612Z,23.28
2022-09-28T11:32:00.948Z,23.16
2022-09-28T11:33:17.614Z,22.98
2022-09-28T11:34:41.538Z,22.72
2022-09-28T11:36:15.030Z,22.88
2022-09-28T11:37:44.510Z,22.66
2022-09-28T11:38:53.906Z,22.63
2022-09-28T11:40:16.870Z,22.44
2022-09-28T11:41:34.418Z,22.97
2022-09-28T11:43:16.792Z,22.78
2022-09-28T11:44:46.473Z,22.65
2022-09-28T11:46:02.906Z,22.83
2022-09-28T11:46:59.574Z,22.93
2022-09-28T11:48:09.770Z,23.03
2022-09-28T11:49:25.379Z,23.07
2022-09-28T11:50:37.005Z,23.10
2022-09-28T11:51:40.408Z,23.19
2022-09-28T11:53:00.206Z,23.15
2022-09-28T11:54:04.433Z,23.26
2022-09-28T11:55:22.558Z,23.20
2022-09-28T11:56:43.980Z,23.34
2022-09-28T11:57:46.542Z,22.98
2022-09-28T11:58:49.106Z,22.86
2022-09-28T12:00:10.755Z,23.24
2022-09-28T12:01:19.014Z,23.39
2022-09-28T12:02:25.694Z,23.34
2022-09-28T12:03:36.121Z,23.46
2022-09-28T12:04:42.590Z,23.43
2022-09-28T12:06:03.923Z,23.60
2022-09-28T12:07:06.340Z,23.40
2022-09-28T12:08:20.539Z,23.42
2022-09-28T12:09:30.275Z,23.31
2022-09-28T12:10:47.517Z,23.40
2022-09-28T12:11:50.553Z,23.56
2022-09-28T12:13:01.219Z,22.58
2022-09-28T12:14:02.291Z,23.11
2022-09-28T12:15:11.234Z,23.24
2022-09-28T12:17:00.437Z,22.04
2022-09-28T12:17:52.807Z,22.67
2022-09-28T12:19:06.918Z,22.96
2022-09-28T12:20:19.051Z,22.78
2022-09-28T12:21:21.601Z,22.88
2022-09-28T12:22:32.050Z,22.86
2022-09-28T12:23:35.996Z,22.67
2022-09-28T12:24:45.717Z,23.00
2022-09-28T12:25:55.086Z,23.20
2022-09-28T12:26:56.225Z,23.35
2022-09-28T12:28:30.240Z,23.38
2022-09-28T12:29:49.838Z,23.28
2022-09-28T12:30:49.968Z,23.14
2022-09-28T12:31:58.300Z,23.37
2022-09-28T12:33:05.394Z,23.24
2022-09-28T12:34:03.133Z,22.96
2022-09-28T12:35:00.013Z,23.25
2022-09-28T12:36:19.614Z,22.46
2022-09-28T12:37:25.758Z,23.43
2022-09-28T12:38:34.642Z,23.37
2022-09-28T12:40:01.862Z,22.74
2022-09-28T12:41:06.706Z,23.40
2022-09-28T12:42:28.693Z,22.97
2022-09-28T12:44:03.937Z,23.30
2022-09-28T12:45:53.081Z,23.26
2022-09-28T12:47:16.657Z,23.26
2022-09-28T12:48:41.089Z,23.25
2022-09-28T12:50:37.516Z,23.34
2022-09-28T12:51:30.468Z,22.58
2022-09-28T12:52:45.403Z,23.30
2022-09-28T12:54:19.431Z,23.26
2022-09-28T12:55:37.575Z,22.42
2022-09-28T12:56:42.354Z,23.20
2022-09-28T12:58:06.475Z,22.97
2022-09-28T12:59:09.152Z,23.22
2022-09-28T13:00:17.323Z,22.97
2022-09-28T13:01:57.897Z,22.95
2022-09-28T13:03:31.768Z,23.13
2022-09-28T13:06:09.662Z,22.55
2022-09-28T13:07:15.410Z,22.97
2022-09-28T13:08:31.533Z,23.09
2022-09-28T13:09:47.882Z,23.13
2022-09-28T13:11:15.761Z,23.10
2022-09-28T13:12:42.526Z,23.18
2022-09-28T13:14:31.357Z,23.01
2022-09-28T13:15:53.122Z,23.08
2022-09-28T13:17:04.235Z,23.08
2022-09-28T13:18:14.792Z,23.13
2022-09-28T13:19:20.443Z,22.90
2022-09-28T13:20:43.352Z,23.07
2022-09-28T13:21:55.028Z,23.09
2022-09-28T13:22:56.058Z,23.11
2022-09-28T13:24:14.497Z,23.15
2022-09-28T13:25:20.861Z,22.90
2022-09-28T13:26:37.009Z,23.15
2022-09-28T13:27:40.537Z,22.50
2022-09-28T13:28:39.969Z,22.75
2022-09-28T13:30:45.065Z,23.17
2022-09-28T13:31:55.148Z,23.18
2022-09-28T13:32:56.495Z,22.81
2022-09-28T13:33:53.956Z,23.05
2022-09-28T13:34:50.969Z,23.08
2022-09-28T13:35:47.789Z,23.12
2022-09-28T13:36:48.132Z,23.16
2022-09-28T13:37:45.513Z,23.09
2022-09-28T13:38:49.576Z,22.68
2022-09-28T13:39:46.210Z,23.08
2022-09-28T13:41:04.396Z,23.01
2022-09-28T13:42:02.627Z,22.71
2022-09-28T13:43:25.586Z,22.96
2022-09-28T13:44:36.230Z,22.97
2022-09-28T13:45:50.649Z,23.01
2022-09-28T13:47:20.541Z,23.01